sensor_id;sensor_type;location;lat;lon;timestamp;pressure;altitude;pressure_sealevel;temperature;humidity
9281;BME280;4679;47.966;7.958;2023-02-13T06:25:13;98975.16;;;-1.33;84.42
9281;BME280;4679;47.966;7.958;2023-02-13T06:27:15;98977.78;;;-1.33;84.13
9281;BME280;4679;47.966;7.958;2023-02-13T06:29:17;98977.88;;;-1.34;84.65
9281;BME280;4679;47.966;7.958;2023-02-13T06:31:19;98977.34;;;-1.38;84.73
9281;BME280;4679;47.966;7.958;2023-02-13T06:33:21;98979.78;;;-1.36;84.49
9281;BME280;4679;47.966;7.958;2023-02-13T06:35:22;98977.19;;;-1.36;84.85
9281;BME280;4679;47.966;7.958;2023-02-13T06:37:24;98976.25;;;-1.35;84.54
9281;BME280;4679;47.966;7.958;2023-02-13T06:39:26;98982.88;;;-1.31;84.40
9281;BME280;4679;47.966;7.958;2023-02-13T06:41:29;98983.69;;;-1.31;84.55
9281;BME280;4679;47.966;7.958;2023-02-13T06:43:30;98984.56;;;-1.42;84.14
9281;BME280;4679;47.966;7.958;2023-02-13T06:45:32;98983.88;;;-1.55;84.70
9281;BME280;4679;47.966;7.958;2023-02-13T06:47:34;98987.31;;;-1.54;84.16
9281;BME280;4679;47.966;7.958;2023-02-13T06:49:35;98983.97;;;-1.45;84.82
9281;BME280;4679;47.966;7.958;2023-02-13T06:51:37;98975.69;;;-1.39;84.41
9281;BME280;4679;47.966;7.958;2023-02-13T06:53:39;98978.13;;;-1.37;84.55
9281;BME280;4679;47.966;7.958;2023-02-13T06:55:40;98972.56;;;-1.33;84.57
9281;BME280;4679;47.966;7.958;2023-02-13T06:57:44;98980.03;;;-1.28;84.47
9281;BME280;4679;47.966;7.958;2023-02-13T06:59:45;98980.84;;;-1.28;84.21
9281;BME280;4679;47.966;7.958;2023-02-13T07:01:47;98980.72;;;-1.26;84.27
9281;BME280;4679;47.966;7.958;2023-02-13T07:03:48;98985.94;;;-1.26;84.42
9281;BME280;4679;47.966;7.958;2023-02-13T07:05:50;98991.16;;;-1.26;84.43
9281;BME280;4679;47.966;7.958;2023-02-13T07:07:52;98985.09;;;-1.27;84.21
9281;BME280;4679;47.966;7.958;2023-02-13T07:09:54;98985.09;;;-1.27;84.56
9281;BME280;4679;47.966;7.958;2023-02-13T07:11:55;98981.56;;;-1.26;84.22
9281;BME280;4679;47.966;7.958;2023-02-13T07:13:58;98980.34;;;-1.22;84.48
9281;BME280;4679;47.966;7.958;2023-02-13T07:16:00;98980.72;;;-1.26;84.39
9281;BME280;4679;47.966;7.958;2023-02-13T07:18:02;98978.94;;;-1.26;84.24
9281;BME280;4679;47.966;7.958;2023-02-13T07:20:06;98982.16;;;-1.22;84.17
9281;BME280;4679;47.966;7.958;2023-02-13T07:22:07;98991.94;;;-1.15;84.45
9281;BME280;4679;47.966;7.958;2023-02-13T07:24:09;98982.69;;;-1.08;84.02
9281;BME280;4679;47.966;7.958;2023-02-13T07:26:11;98982.03;;;-1.00;84.08
9281;BME280;4679;47.966;7.958;2023-02-13T07:28:13;98982.38;;;-0.93;84.23
9281;BME280;4679;47.966;7.958;2023-02-13T07:30:16;98986.47;;;-0.80;84.23
9281;BME280;4679;47.966;7.958;2023-02-13T07:32:18;98986.66;;;-0.72;83.95
9281;BME280;4679;47.966;7.958;2023-02-13T07:34:19;98997.53;;;-0.66;84.02
9281;BME280;4679;47.966;7.958;2023-02-13T07:36:21;98994.56;;;-0.62;83.80
9281;BME280;4679;47.966;7.958;2023-02-13T07:38:23;98999.38;;;-0.57;83.88
9281;BME280;4679;47.966;7.958;2023-02-13T07:40:24;98994.63;;;-0.52;83.81
9281;BME280;4679;47.966;7.958;2023-02-13T07:42:26;99000.13;;;-0.46;83.76
9281;BME280;4679;47.966;7.958;2023-02-13T07:44:28;98988.25;;;-0.39;83.68
9281;BME280;4679;47.966;7.958;2023-02-13T07:46:31;98988.56;;;-0.32;83.75
9281;BME280;4679;47.966;7.958;2023-02-13T07:48:33;98993.97;;;-0.24;83.71
9281;BME280;4679;47.966;7.958;2023-02-13T07:50:35;98997.56;;;-0.15;83.56
9281;BME280;4679;47.966;7.958;2023-02-13T07:52:36;98997.75;;;-0.07;83.43
9281;BME280;4679;47.966;7.958;2023-02-13T07:54:38;98990.09;;;0.01;83.21
9281;BME280;4679;47.966;7.958;2023-02-13T07:56:46;98996.19;;;0.11;83.04
9281;BME280;4679;47.966;7.958;2023-02-13T07:58:48;98998.00;;;0.20;82.94
9281;BME280;4679;47.966;7.958;2023-02-13T08:00:49;98990.63;;;0.25;83.10
9281;BME280;4679;47.966;7.958;2023-02-13T08:02:52;98992.69;;;0.31;83.02
9281;BME280;4679;47.966;7.958;2023-02-13T08:04:54;98995.72;;;0.37;82.74
9281;BME280;4679;47.966;7.958;2023-02-13T08:06:55;98990.13;;;0.41;82.68
9281;BME280;4679;47.966;7.958;2023-02-13T08:08:57;98986.44;;;0.53;82.91
9281;BME280;4679;47.966;7.958;2023-02-13T08:11:22;98991.66;;;0.63;83.19
9281;BME280;4679;47.966;7.958;2023-02-13T08:13:43;98986.75;;;0.69;82.98
9281;BME280;4679;47.966;7.958;2023-02-13T08:15:44;98987.19;;;0.75;82.72
9281;BME280;4679;47.966;7.958;2023-02-13T08:17:46;98985.66;;;0.82;82.73
9281;BME280;4679;47.966;7.958;2023-02-13T08:19:49;98986.47;;;0.92;82.58
9281;BME280;4679;47.966;7.958;2023-02-13T08:21:51;98987.34;;;1.02;82.13
9281;BME280;4679;47.966;7.958;2023-02-13T08:23:52;98988.97;;;1.13;82.05
9281;BME280;4679;47.966;7.958;2023-02-13T08:25:54;98988.00;;;1.23;81.81
9281;BME280;4679;47.966;7.958;2023-02-13T08:27:56;98981.13;;;1.32;81.90
9281;BME280;4679;47.966;7.958;2023-02-13T08:29:58;98989.66;;;1.44;81.85
9281;BME280;4679;47.966;7.958;2023-02-13T08:32:01;98981.78;;;1.53;81.76
9281;BME280;4679;47.966;7.958;2023-02-13T08:34:02;98980.53;;;1.67;82.08
9281;BME280;4679;47.966;7.958;2023-02-13T08:36:06;98988.22;;;1.78;81.31
9281;BME280;4679;47.966;7.958;2023-02-13T08:38:08;98982.81;;;1.89;81.77
9281;BME280;4679;47.966;7.958;2023-02-13T08:40:10;98986.06;;;2.01;81.35
9281;BME280;4679;47.966;7.958;2023-02-13T08:42:12;98989.88;;;2.16;81.08
9281;BME280;4679;47.966;7.958;2023-02-13T08:44:14;98986.28;;;2.27;81.25
9281;BME280;4679;47.966;7.958;2023-02-13T08:46:16;98985.38;;;2.36;81.21
9281;BME280;4679;47.966;7.958;2023-02-13T08:48:18;98984.91;;;2.50;80.97
9281;BME280;4679;47.966;7.958;2023-02-13T08:50:20;98987.16;;;2.63;80.91
9281;BME280;4679;47.966;7.958;2023-02-13T08:52:23;98982.56;;;2.74;80.61
9281;BME280;4679;47.966;7.958;2023-02-13T08:54:25;98987.59;;;2.86;80.36
9281;BME280;4679;47.966;7.958;2023-02-13T08:56:27;98982.13;;;2.97;80.39
9281;BME280;4679;47.966;7.958;2023-02-13T08:58:28;98982.56;;;3.10;80.18
9281;BME280;4679;47.966;7.958;2023-02-13T09:00:30;98982.19;;;3.23;79.91
9281;BME280;4679;47.966;7.958;2023-02-13T09:02:32;98982.78;;;3.34;79.86
9281;BME280;4679;47.966;7.958;2023-02-13T09:04:34;98982.25;;;3.48;79.78
9281;BME280;4679;47.966;7.958;2023-02-13T09:06:36;98978.25;;;3.62;79.60
9281;BME280;4679;47.966;7.958;2023-02-13T09:08:39;98978.50;;;3.77;79.06
9281;BME280;4679;47.966;7.958;2023-02-13T09:10:41;98973.66;;;3.90;79.22
9281;BME280;4679;47.966;7.958;2023-02-13T09:12:44;98983.72;;;3.95;78.96
9281;BME280;4679;47.966;7.958;2023-02-13T09:14:52;98979.16;;;4.05;79.02
9281;BME280;4679;47.966;7.958;2023-02-13T09:16:53;98981.81;;;4.13;79.16
9281;BME280;4679;47.966;7.958;2023-02-13T09:18:55;98976.94;;;4.18;78.84
9281;BME280;4679;47.966;7.958;2023-02-13T09:20:58;98973.03;;;4.22;78.57
9281;BME280;4679;47.966;7.958;2023-02-13T09:23:00;98978.00;;;4.33;78.58
9281;BME280;4679;47.966;7.958;2023-02-13T09:25:04;98969.81;;;4.44;78.48
9281;BME280;4679;47.966;7.958;2023-02-13T09:27:06;98976.09;;;4.51;78.61
9281;BME280;4679;47.966;7.958;2023-02-13T09:29:08;98968.72;;;4.63;78.03
9281;BME280;4679;47.966;7.958;2023-02-13T09:31:12;98974.69;;;4.73;78.05
9281;BME280;4679;47.966;7.958;2023-02-13T09:33:15;98969.63;;;4.88;77.80
9281;BME280;4679;47.966;7.958;2023-02-13T09:35:17;98971.28;;;4.97;77.72
9281;BME280;4679;47.966;7.958;2023-02-13T09:37:19;98973.44;;;5.10;77.79
9281;BME280;4679;47.966;7.958;2023-02-13T09:39:22;98969.00;;;5.18;77.14
9281;BME280;4679;47.966;7.958;2023-02-13T09:41:26;98976.25;;;5.24;77.37
9281;BME280;4679;47.966;7.958;2023-02-13T09:43:30;98973.94;;;5.29;76.63
9281;BME280;4679;47.966;7.958;2023-02-13T09:45:34;98970.34;;;5.30;76.35
9281;BME280;4679;47.966;7.958;2023-02-13T09:47:38;98966.03;;;5.38;77.30
9281;BME280;4679;47.966;7.958;2023-02-13T09:49:44;98966.69;;;5.40;76.79
9281;BME280;4679;47.966;7.958;2023-02-13T09:51:51;98966.69;;;5.40;76.81
9281;BME280;4679;47.966;7.958;2023-02-13T09:53:56;98959.97;;;5.45;76.47
9281;BME280;4679;47.966;7.958;2023-02-13T09:56:04;98967.84;;;5.53;76.74
9281;BME280;4679;47.966;7.958;2023-02-13T09:58:15;98967.34;;;5.66;76.34
9281;BME280;4679;47.966;7.958;2023-02-13T10:00:23;98964.38;;;5.69;75.55
9281;BME280;4679;47.966;7.958;2023-02-13T10:02:40;98962.19;;;5.81;75.99
9281;BME280;4679;47.966;7.958;2023-02-13T10:04:49;98960.44;;;5.89;75.65
9281;BME280;4679;47.966;7.958;2023-02-13T10:07:01;98960.22;;;5.99;75.84
9281;BME280;4679;47.966;7.958;2023-02-13T10:09:12;98954.63;;;6.10;74.75
9281;BME280;4679;47.966;7.958;2023-02-13T10:11:35;98959.19;;;6.16;75.00
9281;BME280;4679;47.966;7.958;2023-02-13T10:13:56;98951.91;;;6.26;75.38
9281;BME280;4679;47.966;7.958;2023-02-13T10:16:04;98945.94;;;6.32;74.70
9281;BME280;4679;47.966;7.958;2023-02-13T10:18:12;98949.84;;;6.45;74.78
9281;BME280;4679;47.966;7.958;2023-02-13T10:20:24;98951.75;;;6.59;74.71
9281;BME280;4679;47.966;7.958;2023-02-13T10:22:29;98949.69;;;6.77;73.39
9281;BME280;4679;47.966;7.958;2023-02-13T10:24:38;98947.59;;;6.95;74.16
9281;BME280;4679;47.966;7.958;2023-02-13T10:26:41;98945.72;;;7.27;73.82
9281;BME280;4679;47.966;7.958;2023-02-13T10:28:50;98937.53;;;7.36;72.62
9281;BME280;4679;47.966;7.958;2023-02-13T10:31:14;98933.56;;;7.40;72.84
9281;BME280;4679;47.966;7.958;2023-02-13T10:33:20;98931.47;;;7.51;72.86
9281;BME280;4679;47.966;7.958;2023-02-13T10:35:27;98932.25;;;7.59;72.35
9281;BME280;4679;47.966;7.958;2023-02-13T10:37:30;98933.53;;;7.63;71.95
9281;BME280;4679;47.966;7.958;2023-02-13T10:39:32;98932.16;;;7.67;72.14
9281;BME280;4679;47.966;7.958;2023-02-13T10:41:44;98922.78;;;7.80;71.69
9281;BME280;4679;47.966;7.958;2023-02-13T10:44:04;98928.09;;;7.94;71.83
9281;BME280;4679;47.966;7.958;2023-02-13T10:46:21;98920.41;;;8.14;71.17
9281;BME280;4679;47.966;7.958;2023-02-13T10:48:37;98920.97;;;8.24;71.27
9281;BME280;4679;47.966;7.958;2023-02-13T10:50:47;98919.94;;;8.25;71.06
9281;BME280;4679;47.966;7.958;2023-02-13T10:53:04;98917.41;;;8.17;71.14
9281;BME280;4679;47.966;7.958;2023-02-13T10:55:18;98914.41;;;8.20;71.20
9281;BME280;4679;47.966;7.958;2023-02-13T10:57:27;98904.28;;;8.38;70.73
9281;BME280;4679;47.966;7.958;2023-02-13T10:59:47;98907.34;;;8.57;70.50
9281;BME280;4679;47.966;7.958;2023-02-13T11:01:55;98900.94;;;8.66;69.84
9281;BME280;4679;47.966;7.958;2023-02-13T11:04:04;98898.28;;;8.66;70.15
9281;BME280;4679;47.966;7.958;2023-02-13T11:06:07;98901.63;;;8.74;69.77
9281;BME280;4679;47.966;7.958;2023-02-13T11:08:17;98898.16;;;8.74;70.04
9281;BME280;4679;47.966;7.958;2023-02-13T11:10:21;98893.25;;;8.71;69.83
9281;BME280;4679;47.966;7.958;2023-02-13T11:12:25;98891.75;;;8.83;69.61
9281;BME280;4679;47.966;7.958;2023-02-13T11:14:27;98895.03;;;9.06;69.10
9281;BME280;4679;47.966;7.958;2023-02-13T11:16:37;98896.47;;;9.30;69.13
9281;BME280;4679;47.966;7.958;2023-02-13T11:18:42;98895.88;;;9.35;68.96
9281;BME280;4679;47.966;7.958;2023-02-13T11:20:44;98894.94;;;9.42;68.74
9281;BME280;4679;47.966;7.958;2023-02-13T11:22:48;98898.34;;;9.64;68.61
9281;BME280;4679;47.966;7.958;2023-02-13T11:24:54;98888.38;;;9.66;68.16
9281;BME280;4679;47.966;7.958;2023-02-13T11:27:01;98895.75;;;9.71;68.32
9281;BME280;4679;47.966;7.958;2023-02-13T11:29:15;98895.34;;;9.74;67.76
9281;BME280;4679;47.966;7.958;2023-02-13T11:31:23;98894.19;;;9.55;68.19
9281;BME280;4679;47.966;7.958;2023-02-13T11:33:27;98891.81;;;9.60;67.97
9281;BME280;4679;47.966;7.958;2023-02-13T11:35:32;98894.66;;;9.59;67.77
9281;BME280;4679;47.966;7.958;2023-02-13T11:37:33;98890.44;;;9.43;67.90
9281;BME280;4679;47.966;7.958;2023-02-13T11:39:35;98891.72;;;9.47;67.97
9281;BME280;4679;47.966;7.958;2023-02-13T11:41:39;98895.69;;;9.64;67.26
9281;BME280;4679;47.966;7.958;2023-02-13T11:43:45;98889.84;;;9.47;67.72
9281;BME280;4679;47.966;7.958;2023-02-13T11:45:59;98889.53;;;9.29;67.97
9281;BME280;4679;47.966;7.958;2023-02-13T11:48:08;98890.75;;;9.33;68.00
9281;BME280;4679;47.966;7.958;2023-02-13T11:50:25;98892.66;;;9.39;67.24
9281;BME280;4679;47.966;7.958;2023-02-13T11:52:30;98883.97;;;9.45;67.24
9281;BME280;4679;47.966;7.958;2023-02-13T11:54:34;98882.59;;;9.56;67.46
9281;BME280;4679;47.966;7.958;2023-02-13T11:56:47;98887.50;;;9.59;67.39
9281;BME280;4679;47.966;7.958;2023-02-13T11:59:00;98881.13;;;9.47;66.92
9281;BME280;4679;47.966;7.958;2023-02-13T12:01:24;98880.19;;;9.61;66.75
9281;BME280;4679;47.966;7.958;2023-02-13T12:03:29;98879.00;;;9.70;66.76
9281;BME280;4679;47.966;7.958;2023-02-13T12:05:33;98874.06;;;9.61;67.38
9281;BME280;4679;47.966;7.958;2023-02-13T12:07:35;98871.81;;;9.64;67.20
9281;BME280;4679;47.966;7.958;2023-02-13T12:09:38;98875.00;;;9.81;67.29
9281;BME280;4679;47.966;7.958;2023-02-13T12:11:44;98877.94;;;9.93;66.68
9281;BME280;4679;47.966;7.958;2023-02-13T12:13:46;98872.31;;;9.74;66.52
9281;BME280;4679;47.966;7.958;2023-02-13T12:15:52;98868.59;;;9.69;67.07
9281;BME280;4679;47.966;7.958;2023-02-13T12:18:04;98876.56;;;9.69;66.99
9281;BME280;4679;47.966;7.958;2023-02-13T12:20:11;98859.28;;;9.79;66.06
9281;BME280;4679;47.966;7.958;2023-02-13T12:22:25;98868.56;;;9.97;66.62
9281;BME280;4679;47.966;7.958;2023-02-13T12:24:43;98860.84;;;10.08;66.66
9281;BME280;4679;47.966;7.958;2023-02-13T12:26:52;98868.59;;;10.03;65.85
9281;BME280;4679;47.966;7.958;2023-02-13T12:29:17;98866.28;;;10.21;66.06
9281;BME280;4679;47.966;7.958;2023-02-13T12:34:24;98865.53;;;10.00;65.34
9281;BME280;4679;47.966;7.958;2023-02-13T12:36:35;98866.31;;;10.41;65.71
9281;BME280;4679;47.966;7.958;2023-02-13T12:38:53;98866.31;;;10.41;64.90
9281;BME280;4679;47.966;7.958;2023-02-13T12:41:13;98863.50;;;10.56;64.88
9281;BME280;4679;47.966;7.958;2023-02-13T12:43:45;98864.59;;;10.75;64.46
9281;BME280;4679;47.966;7.958;2023-02-13T12:45:53;98859.88;;;10.64;65.69
9281;BME280;4679;47.966;7.958;2023-02-13T12:48:12;98863.59;;;10.96;64.83
9281;BME280;4679;47.966;7.958;2023-02-13T12:50:35;98860.56;;;11.25;63.71
9281;BME280;4679;47.966;7.958;2023-02-13T12:52:46;98856.25;;;11.37;64.30
9281;BME280;4679;47.966;7.958;2023-02-13T12:55:01;98859.31;;;11.21;64.80
9281;BME280;4679;47.966;7.958;2023-02-13T12:57:12;98860.13;;;11.08;64.15
9281;BME280;4679;47.966;7.958;2023-02-13T12:59:26;98856.66;;;10.95;64.16
9281;BME280;4679;47.966;7.958;2023-02-13T13:01:56;98860.94;;;10.82;63.89
9281;BME280;4679;47.966;7.958;2023-02-13T13:04:08;98858.03;;;10.71;64.97
9281;BME280;4679;47.966;7.958;2023-02-13T13:08:53;98856.84;;;10.86;63.68
9281;BME280;4679;47.966;7.958;2023-02-13T13:11:12;98854.03;;;11.14;64.51
9281;BME280;4679;47.966;7.958;2023-02-13T13:13:27;98851.94;;;11.03;64.26
9281;BME280;4679;47.966;7.958;2023-02-13T13:15:34;98854.59;;;10.77;63.75
9281;BME280;4679;47.966;7.958;2023-02-13T13:17:48;98854.16;;;10.67;65.18
9281;BME280;4679;47.966;7.958;2023-02-13T13:20:01;98845.19;;;10.81;64.48
9281;BME280;4679;47.966;7.958;2023-02-13T13:22:09;98849.72;;;10.93;64.00
9281;BME280;4679;47.966;7.958;2023-02-13T13:24:22;98848.09;;;10.99;63.58
9281;BME280;4679;47.966;7.958;2023-02-13T13:26:34;98854.41;;;10.91;64.11
9281;BME280;4679;47.966;7.958;2023-02-13T13:28:39;98850.34;;;11.28;63.66
9281;BME280;4679;47.966;7.958;2023-02-13T13:30:42;98848.47;;;11.49;62.22
9281;BME280;4679;47.966;7.958;2023-02-13T13:32:44;98851.75;;;11.38;63.38
9281;BME280;4679;47.966;7.958;2023-02-13T13:34:48;98852.59;;;11.45;62.72
9281;BME280;4679;47.966;7.958;2023-02-13T13:36:55;98852.97;;;11.42;62.07
9281;BME280;4679;47.966;7.958;2023-02-13T13:39:05;98851.97;;;11.30;63.23
9281;BME280;4679;47.966;7.958;2023-02-13T13:41:12;98849.91;;;11.38;62.90
9281;BME280;4679;47.966;7.958;2023-02-13T13:43:21;98846.63;;;11.16;62.98
9281;BME280;4679;47.966;7.958;2023-02-13T13:45:35;98848.91;;;11.06;63.07
9281;BME280;4679;47.966;7.958;2023-02-13T13:48:00;98842.34;;;11.02;63.65
9281;BME280;4679;47.966;7.958;2023-02-13T13:50:17;98841.97;;;11.12;63.19
9281;BME280;4679;47.966;7.958;2023-02-13T13:52:23;98847.88;;;11.20;62.99
9281;BME280;4679;47.966;7.958;2023-02-13T13:54:32;98847.25;;;11.05;62.83
9281;BME280;4679;47.966;7.958;2023-02-13T13:57:03;98845.00;;;11.02;63.34
9281;BME280;4679;47.966;7.958;2023-02-13T13:59:16;98846.06;;;11.14;63.43
9281;BME280;4679;47.966;7.958;2023-02-13T14:01:23;98847.25;;;11.38;62.66
9281;BME280;4679;47.966;7.958;2023-02-13T14:03:33;98847.03;;;11.46;62.88
9281;BME280;4679;47.966;7.958;2023-02-13T14:05:57;98840.50;;;11.42;62.05
9281;BME280;4679;47.966;7.958;2023-02-13T14:08:02;98844.81;;;11.30;62.02
9281;BME280;4679;47.966;7.958;2023-02-13T14:10:05;98845.41;;;11.19;62.65
9281;BME280;4679;47.966;7.958;2023-02-13T14:12:44;98845.63;;;11.44;62.24
9281;BME280;4679;47.966;7.958;2023-02-13T14:14:48;98844.97;;;11.61;61.72
9281;BME280;4679;47.966;7.958;2023-02-13T14:16:50;98833.75;;;11.46;62.61
9281;BME280;4679;47.966;7.958;2023-02-13T14:18:52;98836.63;;;11.38;62.32
9281;BME280;4679;47.966;7.958;2023-02-13T14:20:55;98847.66;;;11.42;62.02
9281;BME280;4679;47.966;7.958;2023-02-13T14:23:16;98839.28;;;11.32;63.10
9281;BME280;4679;47.966;7.958;2023-02-13T14:25:23;98843.19;;;11.09;62.22
9281;BME280;4679;47.966;7.958;2023-02-13T14:27:28;98842.16;;;10.97;63.31
9281;BME280;4679;47.966;7.958;2023-02-13T14:29:32;98843.56;;;10.86;62.78
9281;BME280;4679;47.966;7.958;2023-02-13T14:31:36;98841.53;;;10.88;63.57
9281;BME280;4679;47.966;7.958;2023-02-13T14:33:39;98837.84;;;10.89;62.76
9281;BME280;4679;47.966;7.958;2023-02-13T14:35:41;98836.84;;;11.04;62.03
9281;BME280;4679;47.966;7.958;2023-02-13T14:37:48;98841.94;;;11.32;62.56
9281;BME280;4679;47.966;7.958;2023-02-13T14:42:28;98837.41;;;11.65;62.18
9281;BME280;4679;47.966;7.958;2023-02-13T14:44:33;98833.75;;;11.59;62.01
9281;BME280;4679;47.966;7.958;2023-02-13T14:46:39;98835.00;;;11.37;61.92
9281;BME280;4679;47.966;7.958;2023-02-13T14:48:45;98840.66;;;11.74;62.46
9281;BME280;4679;47.966;7.958;2023-02-13T14:50:51;98836.78;;;11.83;62.14
9281;BME280;4679;47.966;7.958;2023-02-13T14:52:58;98838.63;;;11.69;61.34
9281;BME280;4679;47.966;7.958;2023-02-13T14:55:03;98843.75;;;11.64;62.24
9281;BME280;4679;47.966;7.958;2023-02-13T14:57:09;98836.41;;;11.46;62.37
9281;BME280;4679;47.966;7.958;2023-02-13T14:59:17;98833.78;;;11.26;63.00
9281;BME280;4679;47.966;7.958;2023-02-13T15:01:25;98833.78;;;11.26;62.84
9281;BME280;4679;47.966;7.958;2023-02-13T15:03:35;98834.38;;;11.35;62.24
9281;BME280;4679;47.966;7.958;2023-02-13T15:05:38;98827.22;;;11.36;62.93
9281;BME280;4679;47.966;7.958;2023-02-13T15:07:44;98830.69;;;11.49;62.46
9281;BME280;4679;47.966;7.958;2023-02-13T15:09:50;98833.13;;;11.31;61.96
9281;BME280;4679;47.966;7.958;2023-02-13T15:11:53;98829.47;;;11.06;62.87
9281;BME280;4679;47.966;7.958;2023-02-13T15:13:55;98833.19;;;10.98;63.53
9281;BME280;4679;47.966;7.958;2023-02-13T15:15:58;98827.47;;;11.14;62.28
9281;BME280;4679;47.966;7.958;2023-02-13T15:18:03;98833.78;;;11.13;62.03
9281;BME280;4679;47.966;7.958;2023-02-13T15:20:19;98821.53;;;10.99;63.26
9281;BME280;4679;47.966;7.958;2023-02-13T15:22:29;98833.97;;;10.92;63.27
9281;BME280;4679;47.966;7.958;2023-02-13T15:24:37;98829.47;;;10.92;63.67
9281;BME280;4679;47.966;7.958;2023-02-13T15:26:53;98831.91;;;10.87;62.92
9281;BME280;4679;47.966;7.958;2023-02-13T15:29:02;98827.25;;;10.96;62.66
9281;BME280;4679;47.966;7.958;2023-02-13T15:31:06;98826.84;;;10.99;63.06
9281;BME280;4679;47.966;7.958;2023-02-13T15:33:16;98827.03;;;11.04;62.99
9281;BME280;4679;47.966;7.958;2023-02-13T15:35:23;98825.38;;;10.90;63.39
9281;BME280;4679;47.966;7.958;2023-02-13T15:37:28;98829.66;;;10.65;63.53
9281;BME280;4679;47.966;7.958;2023-02-13T15:39:31;98828.00;;;10.64;64.63
9281;BME280;4679;47.966;7.958;2023-02-13T15:41:35;98835.31;;;10.42;64.63
9281;BME280;4679;47.966;7.958;2023-02-13T15:43:39;98824.97;;;10.06;64.49
9281;BME280;4679;47.966;7.958;2023-02-13T15:45:43;98831.63;;;9.88;64.80
9281;BME280;4679;47.966;7.958;2023-02-13T15:47:45;98824.59;;;9.74;64.91
9281;BME280;4679;47.966;7.958;2023-02-13T15:49:47;98833.09;;;9.63;65.34
9281;BME280;4679;47.966;7.958;2023-02-13T15:52:03;98831.00;;;9.52;65.72
9281;BME280;4679;47.966;7.958;2023-02-13T15:54:19;98826.03;;;9.42;65.44
9281;BME280;4679;47.966;7.958;2023-02-13T15:56:22;98824.25;;;9.22;65.78
9281;BME280;4679;47.966;7.958;2023-02-13T15:58:28;98829.91;;;9.12;66.26
9281;BME280;4679;47.966;7.958;2023-02-13T16:00:33;98831.84;;;9.03;66.38
9281;BME280;4679;47.966;7.958;2023-02-13T16:02:39;98830.81;;;8.98;66.76
9281;BME280;4679;47.966;7.958;2023-02-13T16:04:42;98825.25;;;8.93;66.57
9281;BME280;4679;47.966;7.958;2023-02-13T16:06:45;98827.81;;;8.86;66.78
9281;BME280;4679;47.966;7.958;2023-02-13T16:08:53;98824.25;;;8.72;67.35
9281;BME280;4679;47.966;7.958;2023-02-13T16:11:28;98827.34;;;8.55;67.52
9281;BME280;4679;47.966;7.958;2023-02-13T16:13:30;98824.00;;;8.46;68.17
9281;BME280;4679;47.966;7.958;2023-02-13T16:15:33;98824.31;;;8.36;68.19
9281;BME280;4679;47.966;7.958;2023-02-13T16:17:37;98832.69;;;8.25;67.97
9281;BME280;4679;47.966;7.958;2023-02-13T16:19:44;98828.50;;;8.16;68.31
9281;BME280;4679;47.966;7.958;2023-02-13T16:21:53;98832.09;;;8.08;68.28
9281;BME280;4679;47.966;7.958;2023-02-13T16:23:59;98824.72;;;8.04;68.56
9281;BME280;4679;47.966;7.958;2023-02-13T16:26:07;98828.72;;;8.00;68.46
9281;BME280;4679;47.966;7.958;2023-02-13T16:28:17;98824.63;;;7.97;68.56
9281;BME280;4679;47.966;7.958;2023-02-13T16:30:30;98830.31;;;7.94;68.76
9281;BME280;4679;47.966;7.958;2023-02-13T16:32:34;98829.03;;;7.90;69.04
9281;BME280;4679;47.966;7.958;2023-02-13T16:34:37;98836.50;;;7.87;68.73
9281;BME280;4679;47.966;7.958;2023-02-13T16:36:39;98835.22;;;7.83;68.77
9281;BME280;4679;47.966;7.958;2023-02-13T16:38:41;98835.31;;;7.74;68.86
9281;BME280;4679;47.966;7.958;2023-02-13T16:40:45;98834.97;;;7.63;69.07
9281;BME280;4679;47.966;7.958;2023-02-13T16:42:47;98836.84;;;7.54;69.64
9281;BME280;4679;47.966;7.958;2023-02-13T16:44:49;98833.84;;;7.43;70.12
9281;BME280;4679;47.966;7.958;2023-02-13T16:46:52;98834.47;;;7.30;70.32
9281;BME280;4679;47.966;7.958;2023-02-13T16:49:26;98838.09;;;7.14;70.60
9281;BME280;4679;47.966;7.958;2023-02-13T16:51:35;98841.13;;;7.03;70.48
9281;BME280;4679;47.966;7.958;2023-02-13T16:53:38;98834.56;;;6.84;70.31
9281;BME280;4679;47.966;7.958;2023-02-13T16:55:41;98836.97;;;6.71;70.95
9281;BME280;4679;47.966;7.958;2023-02-13T16:57:44;98837.38;;;6.60;70.51
9281;BME280;4679;47.966;7.958;2023-02-13T17:00:04;98837.94;;;6.47;70.81
9281;BME280;4679;47.966;7.958;2023-02-13T17:02:17;98847.56;;;6.40;71.38
9281;BME280;4679;47.966;7.958;2023-02-13T17:04:21;98848.41;;;6.32;71.45
9281;BME280;4679;47.966;7.958;2023-02-13T17:06:23;98856.91;;;6.20;71.42
9281;BME280;4679;47.966;7.958;2023-02-13T17:08:25;98857.75;;;6.12;71.68
9281;BME280;4679;47.966;7.958;2023-02-13T17:10:28;98847.25;;;6.04;71.81
9281;BME280;4679;47.966;7.958;2023-02-13T17:12:35;98852.53;;;6.04;71.87
9281;BME280;4679;47.966;7.958;2023-02-13T17:14:39;98860.97;;;5.91;71.22
9281;BME280;4679;47.966;7.958;2023-02-13T17:16:41;98849.59;;;5.83;71.79
9281;BME280;4679;47.966;7.958;2023-02-13T17:18:42;98863.16;;;5.72;71.58
9281;BME280;4679;47.966;7.958;2023-02-13T17:20:44;98865.66;;;5.65;72.45
9281;BME280;4679;47.966;7.958;2023-02-13T17:22:47;98865.00;;;5.63;71.79
9281;BME280;4679;47.966;7.958;2023-02-13T17:24:49;98867.63;;;5.55;72.68
9281;BME280;4679;47.966;7.958;2023-02-13T17:26:51;98871.78;;;5.41;72.86
9281;BME280;4679;47.966;7.958;2023-02-13T17:28:52;98874.28;;;5.26;72.88
9281;BME280;4679;47.966;7.958;2023-02-13T17:30:57;98871.47;;;5.20;72.36
9281;BME280;4679;47.966;7.958;2023-02-13T17:33:02;98877.56;;;5.20;73.00
9281;BME280;4679;47.966;7.958;2023-02-13T17:35:04;98874.94;;;5.12;73.42
9281;BME280;4679;47.966;7.958;2023-02-13T17:37:14;98879.22;;;4.97;73.67
9281;BME280;4679;47.966;7.958;2023-02-13T17:39:16;98878.41;;;4.88;73.38
9281;BME280;4679;47.966;7.958;2023-02-13T17:41:18;98884.47;;;4.81;73.07
9281;BME280;4679;47.966;7.958;2023-02-13T17:43:21;98880.66;;;4.75;73.70
9281;BME280;4679;47.966;7.958;2023-02-13T17:45:24;98887.94;;;4.73;72.98
9281;BME280;4679;47.966;7.958;2023-02-13T17:47:27;98891.34;;;4.66;73.72
9281;BME280;4679;47.966;7.958;2023-02-13T17:49:30;98887.06;;;4.65;73.81
9281;BME280;4679;47.966;7.958;2023-02-13T17:51:32;98892.81;;;4.60;73.02
9281;BME280;4679;47.966;7.958;2023-02-13T17:53:34;98888.88;;;4.56;73.52
9281;BME280;4679;47.966;7.958;2023-02-13T17:55:36;98891.66;;;4.54;73.46
9281;BME280;4679;47.966;7.958;2023-02-13T17:57:38;98891.00;;;4.52;73.75
9281;BME280;4679;47.966;7.958;2023-02-13T18:04:46;98890.13;;;4.36;74.35
9281;BME280;4679;47.966;7.958;2023-02-13T18:06:50;98895.03;;;4.31;74.12
9281;BME280;4679;47.966;7.958;2023-02-13T18:08:52;98895.19;;;4.29;73.99
9281;BME280;4679;47.966;7.958;2023-02-13T18:10:54;98891.25;;;4.25;74.15
9281;BME280;4679;47.966;7.958;2023-02-13T18:12:56;98895.34;;;4.19;74.30